createdAt,value
2019-01-02T00:00:48.366Z,82.22
2019-01-02T00:01:48.708Z,81.74
2019-01-02T00:02:48.323Z,82.03
2019-01-02T00:03:48.309Z,81.46
2019-01-02T00:04:48.644Z,80.71
2019-01-02T00:05:48.265Z,80.52
2019-01-02T00:06:48.249Z,80.14
2019-01-02T00:07:48.226Z,80.99
2019-01-02T00:08:48.218Z,82.12
2019-01-02T00:09:48.522Z,82.12
2019-01-02T00:10:48.174Z,82.41
2019-01-02T00:11:48.152Z,82.03
2019-01-02T00:12:48.388Z,82.41
2019-01-02T00:13:48.110Z,82.5
2019-01-02T00:14:48.089Z,83.45
2019-01-02T00:15:48.076Z,84.01
2019-01-02T00:16:48.052Z,84.49
2019-01-02T00:17:48.373Z,85.43
2019-01-02T00:18:48.014Z,85.24
2019-01-02T00:19:47.999Z,86.1
2019-01-02T00:20:48.289Z,86.1
2019-01-02T00:21:47.964Z,86.38
2019-01-02T00:22:47.945Z,87.13
2019-01-02T00:23:47.920Z,87.89
2019-01-02T00:24:47.893Z,88.93
2019-01-02T00:25:48.123Z,89.87
2019-01-02T00:26:47.862Z,91.96
2019-01-02T00:27:47.846Z,92.33
2019-01-02T00:28:47.989Z,92.99
2019-01-02T00:29:47.806Z,94.13
2019-01-02T00:30:47.789Z,94.89
2019-01-02T00:31:47.511Z,95.73
2019-01-02T00:32:47.750Z,96.3
2019-01-02T00:33:47.812Z,96.78
2019-01-02T00:34:47.708Z,97.91
2019-01-02T00:35:47.685Z,98.1
2019-01-02T00:36:47.912Z,97.53
2019-01-02T00:37:47.648Z,96.4
2019-01-02T00:38:47.669Z,96.87
2019-01-02T00:39:47.615Z,96.49
2019-01-02T00:40:47.590Z,96.87
2019-01-02T00:41:47.888Z,96.87
2019-01-02T00:42:47.593Z,96.87
2019-01-02T00:43:47.774Z,97.15
2019-01-02T00:44:47.271Z,97.63
2019-01-02T00:45:47.498Z,97.15
2019-01-02T00:46:47.690Z,96.3
2019-01-02T00:47:47.458Z,95.92
2019-01-02T00:48:47.443Z,95.83
2019-01-02T00:49:47.671Z,96.4
2019-01-02T00:50:47.405Z,96.87
2019-01-02T00:51:47.728Z,96.3
2019-01-02T00:52:47.360Z,95.26
2019-01-02T00:53:47.095Z,93.84
2019-01-02T00:54:47.657Z,92.33
2019-01-02T00:55:47.069Z,90.25
2019-01-02T00:56:47.267Z,87.89
2019-01-02T00:57:47.265Z,86.1
2019-01-02T00:58:47.244Z,84.2
2019-01-02T00:59:47.503Z,82.03
2019-01-02T01:00:47.214Z,80.99
2019-01-02T01:01:47.554Z,79.86
2019-01-02T01:02:47.172Z,79.19
2019-01-02T01:03:47.162Z,79
2019-01-02T01:04:47.303Z,79
2019-01-02T01:05:47.108Z,78.63
2019-01-02T01:06:47.395Z,78.44
2019-01-02T01:07:47.075Z,77.59
2019-01-02T01:08:47.060Z,76.17
2019-01-02T01:09:47.041Z,76.26
2019-01-02T01:10:47.021Z,75.32
2019-01-02T01:11:47.231Z,75.51
2019-01-02T01:12:46.730Z,75.6
2019-01-02T01:13:46.954Z,75.04
2019-01-02T01:14:47.074Z,75.04
2019-01-02T01:15:46.918Z,75.7
2019-01-02T01:16:47.062Z,75.32
2019-01-02T01:17:46.877Z,75.23
2019-01-02T01:18:46.858Z,74.57
2019-01-02T01:19:46.788Z,74.19
2019-01-02T01:20:46.831Z,74.28
2019-01-02T01:21:47.170Z,74.28
2019-01-02T01:22:46.787Z,73.33
2019-01-02T01:23:46.764Z,72.58
2019-01-02T01:24:47.101Z,72.49
2019-01-02T01:25:46.734Z,71.83
2019-01-02T01:26:46.702Z,71.16
2019-01-02T01:27:47.009Z,71.54
2019-01-02T01:28:46.668Z,71.64
2019-01-02T01:29:46.647Z,72.96
2019-01-02T01:30:46.849Z,73.81
2019-01-02T01:31:46.607Z,73.05
2019-01-02T01:32:46.591Z,72.39
2019-01-02T01:33:46.917Z,71.45
2019-01-02T01:34:46.298Z,70.78
2019-01-02T01:35:46.529Z,70.12
2019-01-02T01:36:46.771Z,69.93
2019-01-02T01:37:46.486Z,69.56
2019-01-02T01:38:46.465Z,68.42
2019-01-02T01:39:46.617Z,68.33
2019-01-02T01:40:46.434Z,67.47
2019-01-02T01:41:46.176Z,66.72
2019-01-02T01:42:46.410Z,65.49
2019-01-02T01:43:46.378Z,65.4
2019-01-02T01:44:46.769Z,64.17
2019-01-02T01:45:46.340Z,63.89
2019-01-02T01:46:46.317Z,62.47
2019-01-02T01:47:46.600Z,62.09
2019-01-02T01:48:46.282Z,61.24
2019-01-02T01:49:46.013Z,61.05
2019-01-02T01:50:46.637Z,60.77
2019-01-02T01:51:46.218Z,60.67
2019-01-02T01:52:45.954Z,60.2
2019-01-02T01:53:46.444Z,59.63
2019-01-02T01:54:46.167Z,59.44
2019-01-02T01:55:46.139Z,58.12
2019-01-02T01:56:46.389Z,57.65
2019-01-02T01:57:46.101Z,57.65
2019-01-02T01:58:46.087Z,57.08
2019-01-02T01:59:46.394Z,56.32
2019-01-02T02:00:46.042Z,55.19
2019-01-02T02:01:45.782Z,54.15
2019-01-02T02:02:46.011Z,53.96
2019-01-02T02:03:45.986Z,53.96
2019-01-02T02:04:46.002Z,53.68
2019-01-02T02:05:45.944Z,53.11
2019-01-02T02:06:45.930Z,52.45
2019-01-02T02:07:46.056Z,51.98
2019-01-02T02:08:45.887Z,52.07
2019-01-02T02:09:45.870Z,52.36
2019-01-02T02:10:46.104Z,51.69
2019-01-02T02:11:45.830Z,51.79
2019-01-02T02:12:45.829Z,52.17
2019-01-02T02:13:46.058Z,51.69
2019-01-02T02:14:45.777Z,50.84
2019-01-02T02:15:45.756Z,50.56
2019-01-02T02:16:45.802Z,49.99
2019-01-02T02:17:45.709Z,49.99
2019-01-02T02:18:45.694Z,49.43
2019-01-02T02:19:46.018Z,48.95
2019-01-02T02:20:45.655Z,48.76
2019-01-02T02:21:45.974Z,48.86
2019-01-02T02:22:45.621Z,48.67
2019-01-02T02:23:45.353Z,48.57
2019-01-02T02:24:45.749Z,48.57
2019-01-02T02:25:45.561Z,47.34
2019-01-02T02:26:45.540Z,47.63
2019-01-02T02:27:45.808Z,47.34
2019-01-02T02:28:45.510Z,47.63
2019-01-02T02:29:45.485Z,46.21
2019-01-02T02:30:45.756Z,46.21
2019-01-02T02:31:45.441Z,45.83
2019-01-02T02:32:45.788Z,45.74
2019-01-02T02:33:45.736Z,45.45
2019-01-02T02:34:45.382Z,45.17
2019-01-02T02:35:45.653Z,45.27
2019-01-02T02:36:45.623Z,45.08
2019-01-02T02:37:45.324Z,44.79
2019-01-02T02:38:45.619Z,44.6
2019-01-02T02:39:45.548Z,44.7
2019-01-02T02:40:45.267Z,44.6
2019-01-02T02:41:45.590Z,44.89
2019-01-02T02:42:45.558Z,45.45
2019-01-02T02:43:45.210Z,45.64
2019-01-02T02:44:45.191Z,45.83
2019-01-02T02:45:45.448Z,46.12
2019-01-02T02:46:45.156Z,46.31
2019-01-02T02:47:45.511Z,46.5
2019-01-02T02:48:45.283Z,46.59
2019-01-02T02:49:45.095Z,46.78
2019-01-02T02:50:45.398Z,46.78
2019-01-02T02:51:45.442Z,46.4
2019-01-02T02:52:45.040Z,46.5
2019-01-02T02:53:45.138Z,46.02
2019-01-02T02:54:44.999Z,46.12
2019-01-02T02:55:45.104Z,45.45
2019-01-02T02:56:45.367Z,45.64
2019-01-02T02:57:44.945Z,46.12
2019-01-02T02:58:44.997Z,46.5
2019-01-02T02:59:44.903Z,47.63
2019-01-02T03:00:45.287Z,47.53
2019-01-02T03:01:45.132Z,47.34
2019-01-02T03:02:44.845Z,47.63
2019-01-02T03:03:45.011Z,47.72
2019-01-02T03:04:45.165Z,47.91
2019-01-02T03:05:44.788Z,47.91
2019-01-02T03:06:46.729Z,47.82
2019-01-02T03:07:45.066Z,47.72
2019-01-02T03:08:44.730Z,48.01
2019-01-02T03:09:45.011Z,48.76
2019-01-02T03:10:44.987Z,48.57
2019-01-02T03:11:44.422Z,48.57
2019-01-02T03:12:44.930Z,48.57
2019-01-02T03:13:44.845Z,48.67
2019-01-02T03:14:44.611Z,48.57
2019-01-02T03:15:44.941Z,48.48
2019-01-02T03:16:45.822Z,48.86
2019-01-02T03:17:44.552Z,48.76
2019-01-02T03:18:44.537Z,48.76
2019-01-02T03:19:44.839Z,48.67
2019-01-02T03:20:44.493Z,48.76
2019-01-02T03:21:44.596Z,48.95
2019-01-02T03:22:44.744Z,49.9
2019-01-02T03:23:44.435Z,49.99
2019-01-02T03:24:44.642Z,50.18
2019-01-02T03:25:44.613Z,50.37
2019-01-02T03:26:44.381Z,49.99
2019-01-02T03:27:44.706Z,49.99
2019-01-02T03:28:44.576Z,49.9
2019-01-02T03:29:44.319Z,49.71
2019-01-02T03:30:44.552Z,50.18
2019-01-02T03:31:44.271Z,50.27
2019-01-02T03:32:44.536Z,50.56
2019-01-02T03:33:44.243Z,50.56
2019-01-02T03:34:44.215Z,50.65
2019-01-02T03:35:44.196Z,50.65
2019-01-02T03:36:43.928Z,51.22
2019-01-02T03:37:44.155Z,51.41
2019-01-02T03:38:44.141Z,52.26
2019-01-02T03:39:44.122Z,52.64
2019-01-02T03:40:44.101Z,53.3
2019-01-02T03:41:43.840Z,53.58
2019-01-02T03:42:44.060Z,53.87
2019-01-02T03:43:44.042Z,54.81
2019-01-02T03:44:44.304Z,55.19
2019-01-02T03:45:44.005Z,55.19
2019-01-02T03:46:43.986Z,55.1
2019-01-02T03:47:43.962Z,55.19
2019-01-02T03:48:43.942Z,55.1
2019-01-02T03:49:43.925Z,54.72
2019-01-02T03:50:43.908Z,53.96
2019-01-02T03:51:43.886Z,53.87
2019-01-02T03:52:43.871Z,53.11
2019-01-02T03:53:43.845Z,52.92
2019-01-02T03:54:43.833Z,52.36
2019-01-02T03:55:43.808Z,52.07
2019-01-02T03:56:43.793Z,52.36
2019-01-02T03:57:43.772Z,52.36
2019-01-02T03:58:43.752Z,52.17
2019-01-02T03:59:43.729Z,52.07
2019-01-02T04:00:43.713Z,51.5
2019-01-02T04:01:43.694Z,51.22
2019-01-02T04:02:43.711Z,50.84
2019-01-02T04:03:43.656Z,51.03
2019-01-02T04:04:43.634Z,50.94
2019-01-02T04:05:43.617Z,50.65
2019-01-02T04:06:43.599Z,50.18
2019-01-02T04:07:43.576Z,50.37
2019-01-02T04:08:43.558Z,51.03
2019-01-02T04:09:43.550Z,51.22
2019-01-02T04:10:43.516Z,51.98
2019-01-02T04:11:43.498Z,51.88
2019-01-02T04:12:43.233Z,51.32
2019-01-02T04:13:43.464Z,51.32
2019-01-02T04:14:43.443Z,51.32
2019-01-02T04:15:43.178Z,52.17
2019-01-02T04:16:43.404Z,53.2
2019-01-02T04:17:43.393Z,54.06
2019-01-02T04:18:43.368Z,54.62
2019-01-02T04:19:43.346Z,54.53
2019-01-02T04:20:43.082Z,54.53
2019-01-02T04:21:43.057Z,55.1
2019-01-02T04:22:43.287Z,55.19
2019-01-02T04:23:43.273Z,54.62
2019-01-02T04:24:43.253Z,54.62
2019-01-02T04:25:43.236Z,54.91
2019-01-02T04:26:43.211Z,56.04
2019-01-02T04:27:43.192Z,56.51
2019-01-02T04:28:42.927Z,57.37
2019-01-02T04:29:43.154Z,58.12
2019-01-02T04:30:43.131Z,58.4
2019-01-02T04:31:43.112Z,58.4
2019-01-02T04:32:43.096Z,58.69
2019-01-02T04:33:43.079Z,58.4
2019-01-02T04:34:43.057Z,58.69
2019-01-02T04:35:43.038Z,58.22
2019-01-02T04:36:43.023Z,58.22
2019-01-02T04:37:42.995Z,57.74
2019-01-02T04:38:42.979Z,57.55
2019-01-02T04:39:42.961Z,57.18
2019-01-02T04:40:42.942Z,57.27
2019-01-02T04:41:42.924Z,57.55
2019-01-02T04:42:42.909Z,57.37
2019-01-02T04:43:42.889Z,58.22
2019-01-02T04:44:42.867Z,58.69
2019-01-02T04:45:42.595Z,58.87
2019-01-02T04:46:42.826Z,59.54
2019-01-02T04:47:42.812Z,59.63
2019-01-02T04:48:42.541Z,59.73
2019-01-02T04:49:42.770Z,60.67
2019-01-02T04:50:42.800Z,62.5
2019-01-02T04:51:42.729Z,64.26
2019-01-02T04:52:42.712Z,64.83
2019-01-02T04:53:42.703Z,65.97
2019-01-02T04:54:42.670Z,67.19
2019-01-02T04:55:42.652Z,67.7
2019-01-02T04:56:42.638Z,69.18
2019-01-02T04:57:42.616Z,70.59
2019-01-02T04:58:42.596Z,71.45
2019-01-02T04:59:42.577Z,72.58
2019-01-02T05:00:42.310Z,72.71
2019-01-02T05:01:42.537Z,72.67
2019-01-02T05:02:42.268Z,72.86
2019-01-02T05:03:42.504Z,73.71
2019-01-02T05:04:42.485Z,74.66
2019-01-02T05:05:42.459Z,75.7
2019-01-02T05:06:42.440Z,75.79
2019-01-02T05:07:42.436Z,75.42
2019-01-02T05:08:42.402Z,74.28
2019-01-02T05:09:42.382Z,74.38
2019-01-02T05:10:42.364Z,74.95
2019-01-02T05:11:42.101Z,75.36
2019-01-02T05:12:42.327Z,74.79
2019-01-02T05:13:42.306Z,75.23
2019-01-02T05:14:42.287Z,74.09
2019-01-02T05:15:42.316Z,73.62
2019-01-02T05:16:42.248Z,74.69
2019-01-02T05:17:42.231Z,74.95
2019-01-02T05:18:42.211Z,74.95
2019-01-02T05:19:42.190Z,74.95
2019-01-02T05:20:42.170Z,76.74
2019-01-02T05:21:42.147Z,78.44
2019-01-02T05:22:42.135Z,78.63
2019-01-02T05:23:42.113Z,77.78
2019-01-02T05:24:42.096Z,76.97
2019-01-02T05:25:42.082Z,77.78
2019-01-02T05:26:42.057Z,79.1
2019-01-02T05:27:42.037Z,79.48
2019-01-02T05:28:42.020Z,79.29
2019-01-02T05:29:42.000Z,79.38
2019-01-02T05:30:41.980Z,79
2019-01-02T05:31:41.958Z,79.57
2019-01-02T05:32:41.942Z,79
2019-01-02T05:33:41.920Z,78.72
2019-01-02T05:34:41.899Z,78.44
2019-01-02T05:35:41.878Z,78.44
2019-01-02T05:36:41.861Z,78.34
2019-01-02T05:37:41.844Z,78.53
2019-01-02T05:38:41.827Z,78.91
2019-01-02T05:39:41.804Z,79
2019-01-02T05:40:41.787Z,80.05
2019-01-02T05:41:41.768Z,80.62
2019-01-02T05:42:41.744Z,80.99
2019-01-02T05:43:41.729Z,80.52
2019-01-02T05:44:41.708Z,80.62
2019-01-02T05:45:41.685Z,80.8
2019-01-02T05:46:41.677Z,80.33
2019-01-02T05:47:41.404Z,79.67
2019-01-02T05:48:41.631Z,79.86
2019-01-02T05:49:41.610Z,78.81
2019-01-02T05:50:41.591Z,78.81
2019-01-02T05:51:41.570Z,78.91
2019-01-02T05:52:41.308Z,79.67
2019-01-02T05:53:41.534Z,79.57
2019-01-02T05:54:41.518Z,80.71
2019-01-02T05:55:41.497Z,80.52
2019-01-02T05:56:41.487Z,79.86
2019-01-02T05:57:41.456Z,79.67
2019-01-02T05:58:41.195Z,79.95
2019-01-02T05:59:41.426Z,81.27
2019-01-02T06:00:42.338Z,81.65
2019-01-02T06:01:41.380Z,81.74
2019-01-02T06:02:41.363Z,81.37
2019-01-02T06:03:41.340Z,81.09
2019-01-02T06:04:41.076Z,81.37
2019-01-02T06:05:41.312Z,80.24
2019-01-02T06:06:41.284Z,79.76
2019-01-02T06:07:41.263Z,78.91
2019-01-02T06:08:41.245Z,78.63
2019-01-02T06:09:41.228Z,78.81
2019-01-02T06:10:41.211Z,79.38
2019-01-02T06:11:41.188Z,81.18
2019-01-02T06:12:41.167Z,82.12
2019-01-02T06:13:41.148Z,82.12
2019-01-02T06:14:41.130Z,82.22
2019-01-02T06:15:41.112Z,82.22
2019-01-02T06:16:40.852Z,82.69
2019-01-02T06:17:41.074Z,82.6
2019-01-02T06:18:41.052Z,82.69
2019-01-02T06:19:41.029Z,83.36
2019-01-02T06:20:40.766Z,84.11
2019-01-02T06:21:40.993Z,83.92
2019-01-02T06:22:40.974Z,83.64
2019-01-02T06:23:40.956Z,82.79
2019-01-02T06:24:40.939Z,82.79
2019-01-02T06:25:40.917Z,83.64
2019-01-02T06:26:40.899Z,84.96
2019-01-02T06:27:40.629Z,86.19
2019-01-02T06:28:40.859Z,86.57
2019-01-02T06:29:40.839Z,86.57
2019-01-02T06:30:40.821Z,87.51
2019-01-02T06:31:40.803Z,87.79
2019-01-02T06:32:40.787Z,88.36
2019-01-02T06:33:40.765Z,88.08
2019-01-02T06:34:40.746Z,87.7
2019-01-02T06:35:40.725Z,87.98
2019-01-02T06:36:40.715Z,89.12
2019-01-02T06:37:40.684Z,90.16
2019-01-02T06:38:40.418Z,90.25
2019-01-02T06:39:40.650Z,90.54
2019-01-02T06:40:40.627Z,89.69
2019-01-02T06:41:40.607Z,90.82
2019-01-02T06:42:40.594Z,91.48
2019-01-02T06:43:40.573Z,91.67
2019-01-02T06:44:40.548Z,91.67
2019-01-02T06:45:40.528Z,91.39
2019-01-02T06:46:40.510Z,91.48
2019-01-02T06:47:40.491Z,92.14
2019-01-02T06:48:40.473Z,93.37
2019-01-02T06:49:40.451Z,94.22
2019-01-02T06:50:40.434Z,95.36
2019-01-02T06:51:40.413Z,96.4
2019-01-02T06:52:40.398Z,96.3
2019-01-02T06:53:40.375Z,96.11
2019-01-02T06:54:40.356Z,95.83
2019-01-02T06:55:40.089Z,95.64
2019-01-02T06:56:40.316Z,97.44
2019-01-02T06:57:40.305Z,98.66
2019-01-02T06:58:40.275Z,99.04
2019-01-02T06:59:40.261Z,99.52
2019-01-02T07:00:40.240Z,99.61
2019-01-02T07:01:40.219Z,99.99
2019-01-02T07:02:40.202Z,99.99
2019-01-02T07:03:40.179Z,99.99
2019-01-02T07:04:40.159Z,99.99
2019-01-02T07:05:40.146Z,99.99
2019-01-02T07:06:40.119Z,99.99
2019-01-02T07:07:40.105Z,99.99
2019-01-02T07:08:40.087Z,99.99
2019-01-02T07:09:40.063Z,99.99
2019-01-02T07:10:39.797Z,99.99
2019-01-02T07:11:40.029Z,99.99
2019-01-02T07:12:40.049Z,99.99
2019-01-02T07:13:39.986Z,99.99
2019-01-02T07:14:39.719Z,99.99
2019-01-02T07:15:39.945Z,99.42
2019-01-02T07:16:39.942Z,98.95
2019-01-02T07:17:39.905Z,99.14
2019-01-02T07:18:39.888Z,99.14
2019-01-02T07:19:39.873Z,99.33
2019-01-02T07:20:39.848Z,99.04
2019-01-02T07:21:39.829Z,99.61
2019-01-02T07:22:39.814Z,99.99
2019-01-02T07:23:39.794Z,99.99
2019-01-02T07:24:39.779Z,99.99
2019-01-02T07:25:39.752Z,99.99
2019-01-02T07:26:39.737Z,99.99
2019-01-02T07:27:39.717Z,99.99
2019-01-02T07:28:39.696Z,99.99
2019-01-02T07:29:39.678Z,99.99
2019-01-02T07:30:39.657Z,99.99
2019-01-02T07:31:39.639Z,99.99
2019-01-02T07:32:39.618Z,99.99
2019-01-02T07:33:39.598Z,99.99
2019-01-02T07:34:39.581Z,99.99
2019-01-02T07:35:39.557Z,99.99
2019-01-02T07:36:39.540Z,99.99
2019-01-02T07:37:39.527Z,99.99
2019-01-02T07:38:39.610Z,99.99
2019-01-02T07:39:39.492Z,99.99
2019-01-02T07:40:39.462Z,99.99
2019-01-02T07:41:39.450Z,99.99
2019-01-02T07:42:39.425Z,99.99
2019-01-02T07:43:39.407Z,99.99
2019-01-02T07:44:39.385Z,99.99
2019-01-02T07:45:39.373Z,99.99
2019-01-02T07:46:39.941Z,99.99
2019-01-02T07:47:39.336Z,99.99
2019-01-02T07:48:39.324Z,99.99
2019-01-02T07:49:39.041Z,99.99
2019-01-02T07:50:39.268Z,99.99
2019-01-02T07:51:39.297Z,99.99
2019-01-02T07:52:39.230Z,99.99
2019-01-02T07:53:39.211Z,99.99
2019-01-02T07:54:39.191Z,99.99
2019-01-02T07:55:39.176Z,99.99
2019-01-02T07:56:38.922Z,99.99
2019-01-02T07:57:38.885Z,99.99
2019-01-02T07:58:39.115Z,99.99
2019-01-02T07:59:39.110Z,99.99
2019-01-02T08:00:39.071Z,99.99
2019-01-02T08:01:39.057Z,99.99
2019-01-02T08:02:39.037Z,99.99
2019-01-02T08:03:39.018Z,99.99
2019-01-02T08:04:38.996Z,99.99
2019-01-02T08:05:38.977Z,99.99
2019-01-02T08:06:38.957Z,99.99
2019-01-02T08:07:38.938Z,99.99
2019-01-02T08:08:38.919Z,99.99
2019-01-02T08:09:38.916Z,99.99
2019-01-02T08:10:38.893Z,99.99
2019-01-02T08:11:38.860Z,99.99
2019-01-02T08:12:38.842Z,99.99
2019-01-02T08:13:38.821Z,99.99
2019-01-02T08:14:38.804Z,99.99
2019-01-02T08:15:38.788Z,99.99
2019-01-02T08:16:38.767Z,99.99
2019-01-02T08:17:38.745Z,99.99
2019-01-02T08:18:38.726Z,99.99
2019-01-02T08:19:38.708Z,99.99
2019-01-02T08:20:38.686Z,99.99
2019-01-02T08:21:38.664Z,99.99
2019-01-02T08:22:38.648Z,99.99
2019-01-02T08:23:38.625Z,99.99
2019-01-02T08:24:38.607Z,99.99
2019-01-02T08:25:38.589Z,99.99
2019-01-02T08:26:38.570Z,99.99
2019-01-02T08:27:38.550Z,99.99
2019-01-02T08:28:38.534Z,99.99
2019-01-02T08:29:38.515Z,99.99
2019-01-02T08:30:38.490Z,99.99
2019-01-02T08:31:38.470Z,99.99
2019-01-02T08:32:38.690Z,99.99
2019-01-02T08:33:38.187Z,99.99
2019-01-02T08:34:38.414Z,99.99
2019-01-02T08:35:38.396Z,99.99
2019-01-02T08:36:38.382Z,99.99
2019-01-02T08:37:38.356Z,99.99
2019-01-02T08:38:38.336Z,99.99
2019-01-02T08:39:38.313Z,99.99
2019-01-02T08:40:38.300Z,99.99
2019-01-02T08:41:38.279Z,99.99
2019-01-02T08:42:38.262Z,99.99
2019-01-02T08:43:38.244Z,99.99
2019-01-02T08:44:38.221Z,99.99
2019-01-02T08:45:38.204Z,99.99
2019-01-02T08:46:38.185Z,99.99
2019-01-02T08:47:37.915Z,99.99
2019-01-02T08:48:38.144Z,99.99
2019-01-02T08:49:38.122Z,99.99
2019-01-02T08:50:38.103Z,99.99
2019-01-02T08:51:38.086Z,99.99
2019-01-02T08:52:38.068Z,99.99
2019-01-02T08:53:38.050Z,99.99
2019-01-02T08:54:38.023Z,99.99
2019-01-02T08:55:38.007Z,99.99
2019-01-02T08:56:37.736Z,99.99
2019-01-02T08:57:37.969Z,99.99
2019-01-02T08:58:37.951Z,99.99
2019-01-02T08:59:37.930Z,99.99
2019-01-02T09:00:37.663Z,99.99
2019-01-02T09:01:37.890Z,99.99
2019-01-02T09:02:37.870Z,99.99
2019-01-02T09:03:37.853Z,99.99
2019-01-02T09:04:37.833Z,99.99
2019-01-02T09:05:37.565Z,99.99
2019-01-02T09:06:37.803Z,99.99
2019-01-02T09:07:37.778Z,99.99
2019-01-02T09:08:37.763Z,99.99
2019-01-02T09:09:37.741Z,99.99
2019-01-02T09:10:37.718Z,99.99
2019-01-02T09:11:37.698Z,99.99
2019-01-02T09:12:37.678Z,99.99
2019-01-02T09:13:37.409Z,99.99
2019-01-02T09:14:37.640Z,99.99
2019-01-02T09:15:37.622Z,99.99
2019-01-02T09:16:37.354Z,99.99
2019-01-02T09:17:37.335Z,99.99
2019-01-02T09:18:37.564Z,99.99
2019-01-02T09:19:37.541Z,99.99
2019-01-02T09:20:37.529Z,99.99
2019-01-02T09:21:37.508Z,99.99
2019-01-02T09:22:37.234Z,99.99
2019-01-02T09:23:37.465Z,99.99
2019-01-02T09:24:37.446Z,99.99
2019-01-02T09:25:37.426Z,99.99
2019-01-02T09:26:37.409Z,99.99
2019-01-02T09:27:37.389Z,99.99
2019-01-02T09:28:37.371Z,99.99
2019-01-02T09:29:38.702Z,99.99
2019-01-02T09:30:37.331Z,99.99
2019-01-02T09:31:37.311Z,99.99
2019-01-02T09:32:37.302Z,99.99
2019-01-02T09:33:37.275Z,99.99
2019-01-02T09:34:37.255Z,99.99
2019-01-02T09:35:36.988Z,99.99
2019-01-02T09:36:37.220Z,99.99
2019-01-02T09:37:37.196Z,99.99
2019-01-02T09:38:37.182Z,99.99
2019-01-02T09:39:37.155Z,99.99
2019-01-02T09:40:37.295Z,99.99
2019-01-02T09:41:37.128Z,99.99
2019-01-02T09:42:37.102Z,99.99
2019-01-02T09:43:37.079Z,99.99
2019-01-02T09:44:37.058Z,99.99
2019-01-02T09:45:36.794Z,99.99
2019-01-02T09:46:37.102Z,99.99
2019-01-02T09:47:37.007Z,99.99
2019-01-02T09:48:36.981Z,99.99
2019-01-02T09:49:36.968Z,99.99
2019-01-02T09:50:36.948Z,99.99
2019-01-02T09:51:36.926Z,99.99
2019-01-02T09:52:36.909Z,99.99
2019-01-02T09:53:36.888Z,99.99
2019-01-02T09:54:36.878Z,99.99
2019-01-02T09:55:36.603Z,99.99
2019-01-02T09:56:36.832Z,99.99
2019-01-02T09:57:36.815Z,99.99
2019-01-02T09:58:36.790Z,99.99
2019-01-02T09:59:36.526Z,99.99
2019-01-02T10:00:36.758Z,99.99
2019-01-02T10:01:36.735Z,99.99
2019-01-02T10:02:36.713Z,99.99
2019-01-02T10:03:36.696Z,99.99
2019-01-02T10:04:36.676Z,99.99
2019-01-02T10:05:36.661Z,99.99
2019-01-02T10:06:36.644Z,99.99
2019-01-02T10:07:36.619Z,99.99
2019-01-02T10:08:36.600Z,99.99
2019-01-02T10:09:36.580Z,99.99
2019-01-02T10:10:36.564Z,99.99
2019-01-02T10:11:36.544Z,99.99
2019-01-02T10:12:36.526Z,99.99
2019-01-02T10:13:36.506Z,99.99
2019-01-02T10:14:36.240Z,99.99
2019-01-02T10:15:36.476Z,99.99
2019-01-02T10:16:36.449Z,99.99
2019-01-02T10:17:36.434Z,99.99
2019-01-02T10:18:36.412Z,99.99
2019-01-02T10:19:36.389Z,99.99
2019-01-02T10:20:36.370Z,99.99
2019-01-02T10:21:36.106Z,99.99
2019-01-02T10:22:36.335Z,99.99
2019-01-02T10:23:36.317Z,99.99
2019-01-02T10:24:36.301Z,99.99
2019-01-02T10:25:36.027Z,99.99
2019-01-02T10:26:36.257Z,99.99
2019-01-02T10:27:36.043Z,99.99
2019-01-02T10:28:36.272Z,99.99
2019-01-02T10:29:36.202Z,99.99
2019-01-02T10:30:36.180Z,99.99
2019-01-02T10:31:36.157Z,99.99
2019-01-02T10:32:36.141Z,99.99
2019-01-02T10:33:36.125Z,99.99
2019-01-02T10:34:36.103Z,99.99
2019-01-02T10:35:36.085Z,99.99
2019-01-02T10:36:36.063Z,99.99
2019-01-02T10:37:36.049Z,99.99
2019-01-02T10:38:36.029Z,99.99
2019-01-02T10:39:36.008Z,99.99
2019-01-02T10:40:35.990Z,99.99
2019-01-02T10:41:35.969Z,99.99
2019-01-02T10:42:35.958Z,99.99
2019-01-02T10:43:35.933Z,99.99
2019-01-02T10:44:35.915Z,99.99
2019-01-02T10:45:35.892Z,99.99
2019-01-02T10:46:35.877Z,99.99
2019-01-02T10:47:36.139Z,99.99
2019-01-02T10:48:35.837Z,99.99
2019-01-02T10:49:35.818Z,99.99
2019-01-02T10:50:35.800Z,99.99
2019-01-02T10:51:35.786Z,99.99
2019-01-02T10:52:35.767Z,99.99
2019-01-02T10:53:35.745Z,99.99
2019-01-02T10:54:35.723Z,99.99
2019-01-02T10:55:35.707Z,99.99
2019-01-02T10:56:35.683Z,99.99
2019-01-02T10:57:35.666Z,99.99
2019-01-02T10:58:38.960Z,99.99
2019-01-02T10:59:35.624Z,99.99
2019-01-02T11:00:35.610Z,99.99
2019-01-02T11:01:35.588Z,99.99
2019-01-02T11:02:35.569Z,99.99
2019-01-02T11:03:35.547Z,99.99
2019-01-02T11:04:35.528Z,99.99
2019-01-02T11:05:35.509Z,96.91
2019-01-02T11:06:35.492Z,93.61
2019-01-02T11:07:35.472Z,91.44
2019-01-02T11:08:35.450Z,91.06
2019-01-02T11:09:35.442Z,89.73
2019-01-02T11:10:35.164Z,87.94
2019-01-02T11:11:35.393Z,88.98
2019-01-02T11:12:35.374Z,90.49
2019-01-02T11:13:35.356Z,99.99
2019-01-02T11:14:35.334Z,99.99
2019-01-02T11:15:35.069Z,99.99
2019-01-02T11:16:35.300Z,99.99
2019-01-02T11:17:35.296Z,99.99
2019-01-02T11:18:35.255Z,99.99
2019-01-02T11:19:35.239Z,99.99
2019-01-02T11:20:35.220Z,99.99
2019-01-02T11:21:35.202Z,99.99
2019-01-02T11:22:35.179Z,99.99
2019-01-02T11:23:35.158Z,99.99
2019-01-02T11:24:35.137Z,99.99
2019-01-02T11:25:34.871Z,99.99
2019-01-02T11:26:35.099Z,99.99
2019-01-02T11:27:35.080Z,99.99
2019-01-02T11:28:35.074Z,99.99
2019-01-02T11:29:35.047Z,99.99
2019-01-02T11:30:34.776Z,99.99
2019-01-02T11:31:35.003Z,99.99
2019-01-02T11:32:34.983Z,99.99
2019-01-02T11:33:34.966Z,99.99
2019-01-02T11:34:34.947Z,99.99
2019-01-02T11:35:34.931Z,99.99
2019-01-02T11:36:34.657Z,99.99
2019-01-02T11:37:34.640Z,99.99
2019-01-02T11:38:34.867Z,99.99
2019-01-02T11:39:34.848Z,99.99
2019-01-02T11:40:34.827Z,99.99
2019-01-02T11:41:34.562Z,99.99
2019-01-02T11:42:34.791Z,99.99
2019-01-02T11:43:34.771Z,99.99
2019-01-02T11:44:34.801Z,99.99
2019-01-02T11:45:34.732Z,99.99
2019-01-02T11:46:34.713Z,99.99
2019-01-02T11:47:34.694Z,99.99
2019-01-02T11:48:34.670Z,99.99
2019-01-02T11:49:34.709Z,99.99
2019-01-02T11:50:34.669Z,99.99
2019-01-02T11:51:34.648Z,99.99
2019-01-02T11:52:34.629Z,99.99
2019-01-02T11:53:34.668Z,99.99
2019-01-02T11:54:34.649Z,99.99
2019-01-02T11:55:34.635Z,99.99
2019-01-02T11:56:34.680Z,99.99
2019-01-02T11:57:34.649Z,99.99
2019-01-02T11:58:34.665Z,99.99
2019-01-02T11:59:34.668Z,99.99
2019-01-02T12:00:34.655Z,99.99
2019-01-02T12:01:34.381Z,99.99
2019-01-02T12:02:36.742Z,99.99
2019-01-02T12:03:34.653Z,99.99
2019-01-02T12:04:34.628Z,99.99
2019-01-02T12:05:34.681Z,99.99
2019-01-02T12:06:34.654Z,99.99
2019-01-02T12:07:35.037Z,99.99
2019-01-02T12:08:34.678Z,99.99
2019-01-02T12:09:34.408Z,99.99
2019-01-02T12:10:34.637Z,99.99
2019-01-02T12:11:34.428Z,99.99
2019-01-02T12:12:34.666Z,99.99
2019-01-02T12:13:34.635Z,99.99
2019-01-02T12:14:34.428Z,99.99
2019-01-02T12:15:34.658Z,99.99
2019-01-02T12:16:34.640Z,99.99
2019-01-02T12:17:34.371Z,99.99
2019-01-02T12:18:34.601Z,99.99
2019-01-02T12:19:34.384Z,99.99
2019-01-02T12:20:34.319Z,99.99
2019-01-02T12:21:34.551Z,99.99
2019-01-02T12:22:34.532Z,99.99
2019-01-02T12:23:34.508Z,99.99
2019-01-02T12:24:34.538Z,99.99
2019-01-02T12:25:34.469Z,99.99
2019-01-02T12:26:34.448Z,99.99
2019-01-02T12:27:34.437Z,99.99
2019-01-02T12:28:34.411Z,99.99
2019-01-02T12:29:34.390Z,99.99
2019-01-02T12:30:34.376Z,99.99
2019-01-02T12:31:34.351Z,99.99
2019-01-02T12:32:34.332Z,99.99
2019-01-02T12:33:34.319Z,99.99
2019-01-02T12:34:34.297Z,99.99
2019-01-02T12:35:34.274Z,99.99
2019-01-02T12:36:34.255Z,99.99
2019-01-02T12:37:34.236Z,99.99
2019-01-02T12:38:34.222Z,99.99
2019-01-02T12:39:34.197Z,99.99
2019-01-02T12:40:34.178Z,99.99
2019-01-02T12:41:34.159Z,99.99
2019-01-02T12:42:34.143Z,99.99
2019-01-02T12:43:34.121Z,99.99
2019-01-02T12:44:33.853Z,99.99
2019-01-02T12:45:34.083Z,99.99
2019-01-02T12:46:34.062Z,99.99
2019-01-02T12:47:34.039Z,99.99
2019-01-02T12:48:34.026Z,99.99
2019-01-02T12:49:34.003Z,99.99
2019-01-02T12:50:33.990Z,99.99
2019-01-02T12:51:33.966Z,99.99
2019-01-02T12:52:33.950Z,99.99
2019-01-02T12:53:33.926Z,99.99
2019-01-02T12:54:33.906Z,99.99